createdAt,value
2022-09-20T00:00:50.642Z,10.60
2022-09-20T00:03:17.999Z,10.50
2022-09-20T00:05:46.840Z,10.40
2022-09-20T00:08:16.456Z,10.20
2022-09-20T00:10:43.496Z,10.40
2022-09-20T00:13:12.899Z,10.50
2022-09-20T00:15:46.453Z,10.50
2022-09-20T00:18:13.726Z,10.30
2022-09-20T00:20:48.383Z,10.30
2022-09-20T00:23:15.883Z,10.40
2022-09-20T00:25:43.519Z,10.30
2022-09-20T00:28:11.167Z,10.20
2022-09-20T00:30:38.309Z,10.30
2022-09-20T00:33:05.384Z,10.30
2022-09-20T00:35:33.039Z,10.20
2022-09-20T00:37:59.829Z,10.00
2022-09-20T00:40:30.303Z,10.10
2022-09-20T00:42:57.108Z,10.00
2022-09-20T00:45:28.042Z,10.10
2022-09-20T00:47:57.688Z,10.10
2022-09-20T00:50:30.362Z,10.10
2022-09-20T00:53:21.367Z,10.20
2022-09-20T00:55:55.937Z,10.10
2022-09-20T00:58:24.758Z,10.10
2022-09-20T01:00:54.182Z,10.00
2022-09-20T01:03:22.907Z,10.20
2022-09-20T01:05:53.858Z,10.10
2022-09-20T01:08:24.459Z,9.80
2022-09-20T01:10:52.505Z,9.70
2022-09-20T01:13:19.327Z,9.80
2022-09-20T01:15:48.106Z,9.90
2022-09-20T01:18:17.238Z,9.90
2022-09-20T01:20:45.793Z,9.70
2022-09-20T01:23:49.926Z,9.70
2022-09-20T01:26:38.169Z,9.90
2022-09-20T01:29:39.181Z,10.00
2022-09-20T01:32:12.702Z,9.80
2022-09-20T01:34:47.752Z,9.70
2022-09-20T01:37:57.344Z,9.70
2022-09-20T01:40:45.517Z,9.60
2022-09-20T01:43:21.242Z,9.60
2022-09-20T01:45:49.646Z,9.50
2022-09-20T01:48:37.550Z,9.40
2022-09-20T01:51:41.862Z,9.40
2022-09-20T01:54:30.444Z,9.40
2022-09-20T01:57:26.440Z,9.30
2022-09-20T02:00:03.049Z,9.40
2022-09-20T02:02:51.152Z,9.50
2022-09-20T02:05:54.136Z,9.50
2022-09-20T02:08:38.492Z,9.40
2022-09-20T02:11:18.511Z,9.20
2022-09-20T02:14:12.807Z,9.10
2022-09-20T02:16:53.663Z,9.20
2022-09-20T02:19:46.695Z,9.20
2022-09-20T02:23:10.315Z,8.90
2022-09-20T02:25:55.263Z,9.10
2022-09-20T02:28:41.527Z,9.10
2022-09-20T02:31:49.275Z,9.30
2022-09-20T02:34:38.024Z,9.20
2022-09-20T02:37:40.633Z,9.10
2022-09-20T02:40:28.215Z,9.10
2022-09-20T02:43:01.945Z,9.10
2022-09-20T02:45:54.973Z,9.00
2022-09-20T02:48:29.701Z,8.80
2022-09-20T02:51:08.843Z,8.80
2022-09-20T02:54:00.763Z,8.90
2022-09-20T02:57:02.049Z,8.70
2022-09-20T02:59:46.667Z,8.80
2022-09-20T03:02:52.060Z,8.60
2022-09-20T03:05:32.972Z,8.50
2022-09-20T03:08:18.747Z,9.00
2022-09-20T03:10:58.304Z,9.00
2022-09-20T03:13:34.022Z,8.70
2022-09-20T03:16:19.996Z,8.80
2022-09-20T03:19:33.599Z,8.90
2022-09-20T03:22:13.000Z,8.90
2022-09-20T03:24:43.847Z,8.90
2022-09-20T03:27:31.250Z,8.80
2022-09-20T03:30:00.848Z,8.40
2022-09-20T03:32:55.728Z,8.50
2022-09-20T03:35:35.644Z,8.30
2022-09-20T03:38:47.177Z,8.30
2022-09-20T03:41:17.036Z,8.50
2022-09-20T03:43:57.681Z,8.60
2022-09-20T03:46:29.138Z,8.60
2022-09-20T03:49:10.920Z,8.50
2022-09-20T03:52:02.989Z,8.40
2022-09-20T03:54:49.050Z,8.10
2022-09-20T03:57:35.024Z,8.20
2022-09-20T04:00:02.971Z,8.40
2022-09-20T04:02:53.403Z,8.20
2022-09-20T04:05:33.918Z,8.20
2022-09-20T04:08:39.465Z,8.00
2022-09-20T04:11:22.072Z,8.10
2022-09-20T04:14:03.916Z,7.80
2022-09-20T04:16:51.261Z,7.90
2022-09-20T04:19:38.736Z,7.90
2022-09-20T04:22:07.426Z,7.90
2022-09-20T04:24:50.308Z,7.80
2022-09-20T04:27:31.808Z,8.00
2022-09-20T04:30:01.758Z,7.80
2022-09-20T04:33:07.654Z,7.90
2022-09-20T04:36:24.773Z,7.80
2022-09-20T04:39:05.023Z,7.70
2022-09-20T04:41:59.425Z,7.90
2022-09-20T04:45:07.941Z,8.10
2022-09-20T04:47:55.999Z,8.00
2022-09-20T04:50:37.876Z,7.70
2022-09-20T04:53:14.685Z,7.60
2022-09-20T04:55:53.273Z,7.50
2022-09-20T04:58:47.840Z,7.60
2022-09-20T05:01:43.581Z,7.60
2022-09-20T05:04:32.148Z,7.60
2022-09-20T05:07:18.217Z,7.80
2022-09-20T05:09:51.113Z,7.60
2022-09-20T05:12:46.446Z,7.50
2022-09-20T05:15:23.867Z,7.30
2022-09-20T05:17:53.356Z,7.70
2022-09-20T05:20:24.342Z,7.50
2022-09-20T05:23:11.151Z,7.30
2022-09-20T05:25:56.470Z,7.40
2022-09-20T05:28:30.272Z,7.40
2022-09-20T05:31:12.051Z,7.70
2022-09-20T05:33:55.529Z,7.50
2022-09-20T05:37:00.213Z,7.30
2022-09-20T05:39:49.785Z,7.40
2022-09-20T05:42:39.962Z,7.50
2022-09-20T05:45:24.335Z,7.50
2022-09-20T05:48:20.139Z,7.60
2022-09-20T05:51:03.710Z,7.60
2022-09-20T05:54:12.710Z,7.70
2022-09-20T05:57:04.345Z,7.50
2022-09-20T06:00:02.101Z,7.60
2022-09-20T06:02:40.558Z,7.70
2022-09-20T06:05:33.420Z,7.80
2022-09-20T06:08:38.722Z,7.80
2022-09-20T06:11:45.631Z,8.00
2022-09-20T06:14:36.785Z,8.10
2022-09-20T06:17:16.177Z,8.10
2022-09-20T06:19:50.253Z,8.00
2022-09-20T06:22:27.699Z,8.00
2022-09-20T06:25:23.021Z,8.00
2022-09-20T06:28:14.517Z,8.10
2022-09-20T06:30:57.155Z,8.30
2022-09-20T06:33:25.669Z,8.30
2022-09-20T06:36:30.235Z,8.30
2022-09-20T06:39:43.116Z,8.30
2022-09-20T06:42:10.578Z,8.40
2022-09-20T06:44:41.182Z,8.50
2022-09-20T06:47:11.069Z,8.60
2022-09-20T06:49:39.460Z,8.70
2022-09-20T06:52:07.835Z,8.80
2022-09-20T06:54:34.805Z,9.00
2022-09-20T06:57:05.914Z,9.20
2022-09-20T06:59:32.875Z,9.40
2022-09-20T07:01:59.648Z,9.40
2022-09-20T07:04:26.712Z,9.40
2022-09-20T07:07:00.507Z,9.50
2022-09-20T07:09:30.596Z,9.50
2022-09-20T07:11:59.173Z,9.50
2022-09-20T07:14:29.289Z,9.50
2022-09-20T07:16:56.191Z,9.40
2022-09-20T07:19:23.472Z,9.50
2022-09-20T07:21:50.285Z,9.50
2022-09-20T07:24:17.148Z,9.60
2022-09-20T07:27:03.239Z,9.70
2022-09-20T07:29:30.371Z,9.70
2022-09-20T07:31:58.303Z,9.80
2022-09-20T07:34:25.684Z,9.70
2022-09-20T07:36:52.799Z,9.90
2022-09-20T07:39:20.135Z,9.90
2022-09-20T07:41:48.648Z,10.00
2022-09-20T07:44:22.073Z,10.20
2022-09-20T07:46:53.829Z,10.20
2022-09-20T07:49:21.954Z,10.20
2022-09-20T07:51:50.016Z,10.40
2022-09-20T07:54:17.405Z,10.70
2022-09-20T07:56:45.092Z,10.60
2022-09-20T07:59:13.698Z,10.70
2022-09-20T08:01:41.663Z,10.60
2022-09-20T08:04:10.247Z,10.80
2022-09-20T08:06:42.169Z,10.70
2022-09-20T08:09:11.332Z,10.70
2022-09-20T08:11:40.144Z,10.80
2022-09-20T08:14:09.128Z,11.00
2022-09-20T08:16:41.829Z,11.20
2022-09-20T08:19:11.325Z,11.30
2022-09-20T08:21:39.798Z,11.10
2022-09-20T08:24:06.846Z,11.20
2022-09-20T08:26:35.942Z,11.30
2022-09-20T08:29:05.327Z,11.20
2022-09-20T08:31:36.875Z,11.30
2022-09-20T08:34:06.718Z,11.30
2022-09-20T08:36:36.951Z,11.20
2022-09-20T08:42:11.062Z,11.50
2022-09-20T08:45:01.426Z,11.50
2022-09-20T08:47:33.161Z,11.50
2022-09-20T08:50:08.986Z,11.60
2022-09-20T08:52:40.120Z,11.70
2022-09-20T08:55:18.480Z,11.90
2022-09-20T08:57:53.139Z,12.00
2022-09-20T09:00:26.349Z,12.10
2022-09-20T09:03:19.924Z,11.90
2022-09-20T09:05:55.549Z,11.80
2022-09-20T09:08:29.306Z,11.80
2022-09-20T09:10:59.048Z,11.90
2022-09-20T09:13:42.011Z,12.00
2022-09-20T09:16:15.333Z,12.00
2022-09-20T09:18:44.373Z,12.00
2022-09-20T09:21:21.647Z,12.10
2022-09-20T09:24:14.141Z,12.20
2022-09-20T09:26:43.372Z,12.20
2022-09-20T09:29:19.469Z,12.40
2022-09-20T09:31:49.190Z,12.50
2022-09-20T09:34:38.730Z,12.70
2022-09-20T09:37:05.783Z,13.00
2022-09-20T09:39:35.838Z,13.10
2022-09-20T09:42:22.359Z,13.00
2022-09-20T09:44:50.473Z,13.10
2022-09-20T09:47:27.940Z,13.10
2022-09-20T09:50:09.486Z,12.80
2022-09-20T09:52:36.931Z,12.50
2022-09-20T09:55:05.901Z,12.50
2022-09-20T09:57:55.685Z,12.70
2022-09-20T10:00:24.730Z,13.10
2022-09-20T10:03:13.882Z,13.20
2022-09-20T10:06:30.402Z,13.70
2022-09-20T10:09:21.649Z,13.70
2022-09-20T10:12:11.619Z,13.10
2022-09-20T10:15:22.293Z,13.20
2022-09-20T10:17:55.684Z,13.40
2022-09-20T10:20:41.493Z,13.30
2022-09-20T10:24:01.515Z,13.20
2022-09-20T10:26:25.856Z,13.10
2022-09-20T10:29:02.094Z,13.10
2022-09-20T10:31:43.798Z,12.90
2022-09-20T10:34:19.355Z,12.80
2022-09-20T10:36:54.799Z,12.80
2022-09-20T10:39:33.862Z,12.90
2022-09-20T10:42:31.566Z,13.10
2022-09-20T10:45:10.429Z,13.40
2022-09-20T10:48:09.307Z,13.60
2022-09-20T10:50:52.273Z,13.60
2022-09-20T10:53:49.941Z,13.80
2022-09-20T10:56:28.633Z,14.30
2022-09-20T10:59:01.611Z,14.30
2022-09-20T11:01:36.950Z,14.00
2022-09-20T11:04:22.112Z,13.80
2022-09-20T11:07:04.537Z,13.80
2022-09-20T11:09:38.340Z,13.80
2022-09-20T11:12:59.532Z,13.80
2022-09-20T11:15:53.801Z,13.70
2022-09-20T11:18:33.632Z,13.70
2022-09-20T11:21:04.166Z,13.60
2022-09-20T11:23:56.065Z,13.70
2022-09-20T11:26:28.179Z,13.90
2022-09-20T11:28:59.030Z,13.80
2022-09-20T11:31:39.631Z,13.80
2022-09-20T11:34:27.151Z,14.10
2022-09-20T11:37:03.495Z,14.20
2022-09-20T11:39:36.270Z,14.20
2022-09-20T11:42:08.040Z,14.50
2022-09-20T11:44:41.478Z,14.50
2022-09-20T11:47:42.923Z,14.40
2022-09-20T11:50:35.399Z,14.30
2022-09-20T11:53:50.897Z,14.20
2022-09-20T11:56:25.743Z,14.40
2022-09-20T11:59:04.924Z,14.50
2022-09-20T12:01:38.338Z,14.60
2022-09-20T12:04:31.684Z,14.70
2022-09-20T12:07:18.398Z,14.50
2022-09-20T12:09:59.050Z,14.30
2022-09-20T12:12:34.167Z,14.40
2022-09-20T12:15:04.309Z,14.50
2022-09-20T12:17:57.295Z,14.70
2022-09-20T12:20:34.313Z,14.90
2022-09-20T12:23:42.212Z,14.80
2022-09-20T12:26:13.369Z,14.50
2022-09-20T12:28:48.946Z,14.40
2022-09-20T12:31:21.005Z,14.40
2022-09-20T12:34:20.670Z,14.20
2022-09-20T12:36:53.509Z,14.00
2022-09-20T12:39:29.690Z,14.00
2022-09-20T12:42:05.601Z,14.00
2022-09-20T12:44:39.731Z,13.90
2022-09-20T12:47:15.906Z,13.80
2022-09-20T12:50:04.386Z,13.80
2022-09-20T12:52:55.937Z,13.90
2022-09-20T12:55:55.204Z,14.00
2022-09-20T12:58:23.006Z,14.30
2022-09-20T13:00:57.364Z,14.70
2022-09-20T13:03:32.041Z,14.70
2022-09-20T13:06:14.910Z,14.50
2022-09-20T13:08:59.841Z,14.50
2022-09-20T13:11:44.937Z,14.60
2022-09-20T13:14:18.333Z,14.60
2022-09-20T13:17:07.170Z,15.00
2022-09-20T13:19:39.034Z,15.20
2022-09-20T13:22:22.842Z,15.40
2022-09-20T13:24:58.210Z,15.40
2022-09-20T13:27:38.503Z,15.50
2022-09-20T13:30:10.035Z,15.50
2022-09-20T13:32:41.606Z,15.30
2022-09-20T13:35:19.363Z,15.20
2022-09-20T13:38:07.517Z,14.90
2022-09-20T13:40:42.466Z,14.60
2022-09-20T13:43:23.722Z,14.60
2022-09-20T13:45:56.484Z,14.70
2022-09-20T13:48:31.585Z,14.60
2022-09-20T13:50:58.979Z,14.70
2022-09-20T13:53:41.236Z,14.70
2022-09-20T13:56:16.767Z,14.70
2022-09-20T13:58:43.742Z,14.60
2022-09-20T14:01:28.546Z,14.60
2022-09-20T14:04:18.441Z,14.60
2022-09-20T14:06:45.798Z,14.70
2022-09-20T14:09:27.248Z,14.70
2022-09-20T14:11:54.949Z,14.80
2022-09-20T14:14:23.977Z,14.70
2022-09-20T14:16:53.557Z,14.70
2022-09-20T14:19:25.831Z,14.70
2022-09-20T14:21:54.249Z,14.70
2022-09-20T14:24:28.745Z,14.60
2022-09-20T14:27:19.257Z,14.60
2022-09-20T14:29:54.445Z,14.60
2022-09-20T14:32:25.094Z,14.40
2022-09-20T14:35:05.140Z,14.30
2022-09-20T14:37:49.843Z,14.40
2022-09-20T14:40:23.382Z,14.40
2022-09-20T14:43:03.437Z,15.00
2022-09-20T14:45:34.767Z,15.40
2022-09-20T14:48:10.450Z,15.30
2022-09-20T14:50:37.793Z,15.00
2022-09-20T14:53:25.031Z,14.70
2022-09-20T14:56:04.078Z,14.50
2022-09-20T14:58:54.994Z,14.50
2022-09-20T15:01:25.990Z,14.90
2022-09-20T15:03:53.916Z,15.00
2022-09-20T15:06:20.903Z,14.90
2022-09-20T15:08:47.795Z,14.80
2022-09-20T15:11:18.794Z,14.70
2022-09-20T15:13:46.051Z,14.50
2022-09-20T15:16:14.778Z,14.40
2022-09-20T15:18:43.833Z,14.40
2022-09-20T15:21:11.497Z,14.30
2022-09-20T15:23:39.334Z,14.10
2022-09-20T15:26:07.379Z,14.10
2022-09-20T15:28:34.800Z,14.00
2022-09-20T15:31:01.860Z,14.00
2022-09-20T15:33:32.124Z,14.10
2022-09-20T15:36:05.179Z,14.10
2022-09-20T15:38:32.014Z,14.10
2022-09-20T15:41:03.443Z,14.20
2022-09-20T15:43:31.140Z,14.00
2022-09-20T15:46:19.768Z,14.00
2022-09-20T15:48:46.748Z,13.90
2022-09-20T15:51:15.176Z,14.00
2022-09-20T15:53:46.204Z,14.00
2022-09-20T15:56:25.561Z,13.90
2022-09-20T15:59:00.968Z,13.90
2022-09-20T16:01:36.868Z,13.90
2022-09-20T16:04:07.302Z,13.90
2022-09-20T16:06:34.720Z,13.90
2022-09-20T16:09:01.618Z,13.80
2022-09-20T16:11:28.394Z,13.90
2022-09-20T16:14:00.255Z,13.80
2022-09-20T16:16:29.668Z,13.70
2022-09-20T16:19:15.290Z,13.60
2022-09-20T16:21:44.186Z,13.50
2022-09-20T16:24:14.395Z,13.50
2022-09-20T16:26:41.832Z,13.40
2022-09-20T16:29:09.182Z,13.40
2022-09-20T16:31:50.287Z,13.40
2022-09-20T16:34:28.438Z,13.30
2022-09-20T16:36:58.601Z,13.20
2022-09-20T16:39:27.663Z,13.10
2022-09-20T16:42:03.489Z,13.10
2022-09-20T16:44:31.765Z,13.10
2022-09-20T16:46:58.962Z,13.10
2022-09-20T16:49:28.837Z,13.10
2022-09-20T16:51:56.174Z,13.00
2022-09-20T16:54:23.343Z,13.00
2022-09-20T16:56:51.239Z,12.90
2022-09-20T16:59:21.528Z,12.80
2022-09-20T17:01:49.396Z,12.90
2022-09-20T17:04:21.094Z,12.90
2022-09-20T17:06:50.377Z,12.80
2022-09-20T17:09:17.523Z,12.80
2022-09-20T17:11:47.059Z,12.80
2022-09-20T17:14:16.417Z,12.90
2022-09-20T17:16:47.511Z,12.80
2022-09-20T17:19:16.345Z,12.70
2022-09-20T17:21:46.205Z,12.80
2022-09-20T17:24:14.182Z,12.70
2022-09-20T17:26:45.448Z,12.70
2022-09-20T17:29:16.171Z,12.70
2022-09-20T17:31:48.737Z,12.60
2022-09-20T17:34:18.793Z,12.60
2022-09-20T17:36:46.504Z,12.60
2022-09-20T17:39:15.285Z,12.60
2022-09-20T17:41:44.917Z,12.60
2022-09-20T17:44:12.793Z,12.60
2022-09-20T17:46:41.688Z,12.60
2022-09-20T17:49:14.148Z,12.60
2022-09-20T17:51:43.542Z,12.50
2022-09-20T17:54:14.293Z,12.40
2022-09-20T17:56:50.212Z,12.40
2022-09-20T17:59:18.825Z,12.50
2022-09-20T18:01:48.140Z,12.20
2022-09-20T18:04:16.033Z,12.40
2022-09-20T18:06:48.627Z,12.30
2022-09-20T18:09:18.243Z,12.10
2022-09-20T18:11:49.422Z,12.10
2022-09-20T18:14:23.147Z,12.00
2022-09-20T18:16:56.174Z,11.80
2022-09-20T18:19:23.127Z,11.60
2022-09-20T18:21:50.307Z,11.50
2022-09-20T18:24:17.251Z,11.40
2022-09-20T18:26:44.493Z,11.10
2022-09-20T18:29:14.116Z,11.20
2022-09-20T18:31:46.742Z,11.20
2022-09-20T18:34:19.630Z,11.20
2022-09-20T18:36:52.531Z,11.10
2022-09-20T18:39:24.925Z,11.10
2022-09-20T18:41:53.079Z,10.80
2022-09-20T18:44:21.423Z,10.70
2022-09-20T18:46:49.187Z,10.70
2022-09-20T18:49:17.201Z,10.70
2022-09-20T18:51:44.566Z,10.90
2022-09-20T18:54:12.172Z,10.90
2022-09-20T18:56:41.162Z,10.90
2022-09-20T18:59:24.140Z,10.90
2022-09-20T19:01:52.746Z,10.70
2022-09-20T19:04:37.909Z,10.80
2022-09-20T19:07:22.855Z,10.90
2022-09-20T19:09:54.318Z,10.70
2022-09-20T19:12:44.182Z,10.80
2022-09-20T19:15:32.881Z,10.80
2022-09-20T19:18:31.272Z,11.00
2022-09-20T19:21:20.355Z,11.00
2022-09-20T19:24:11.882Z,10.90
2022-09-20T19:26:40.046Z,10.90
2022-09-20T19:29:17.291Z,10.90
2022-09-20T19:31:44.380Z,10.90
2022-09-20T19:34:18.631Z,11.10
2022-09-20T19:36:53.468Z,10.90
2022-09-20T19:39:45.348Z,10.90
2022-09-20T19:42:28.602Z,11.00
2022-09-20T19:45:16.365Z,10.90
2022-09-20T19:48:03.904Z,10.80
2022-09-20T19:50:46.688Z,10.70
2022-09-20T19:53:15.124Z,10.80
2022-09-20T19:55:47.153Z,10.80
2022-09-20T19:58:15.755Z,10.90
2022-09-20T20:00:47.161Z,10.90
2022-09-20T20:03:15.828Z,10.90
2022-09-20T20:05:48.852Z,11.00
2022-09-20T20:08:38.707Z,11.00
2022-09-20T20:11:34.103Z,11.00
2022-09-20T20:14:07.879Z,11.00
2022-09-20T20:17:03.336Z,11.00
2022-09-20T20:19:40.855Z,11.00
2022-09-20T20:22:30.851Z,10.90
2022-09-20T20:24:57.942Z,11.00
2022-09-20T20:27:29.146Z,11.00
2022-09-20T20:29:56.016Z,10.90
2022-09-20T20:32:23.305Z,10.90
2022-09-20T20:34:50.309Z,10.80
2022-09-20T20:37:18.059Z,10.80
2022-09-20T20:39:45.070Z,10.80
2022-09-20T20:42:14.579Z,10.80
2022-09-20T20:44:43.121Z,10.70
2022-09-20T20:47:09.908Z,10.80
2022-09-20T20:49:36.863Z,10.80
2022-09-20T20:52:05.134Z,10.90
2022-09-20T20:54:32.578Z,10.90
2022-09-20T20:56:59.565Z,10.90
2022-09-20T20:59:26.766Z,10.90
2022-09-20T21:01:53.698Z,10.90
2022-09-20T21:04:21.557Z,11.00
2022-09-20T21:06:48.577Z,11.00
2022-09-20T21:09:15.456Z,10.90
2022-09-20T21:11:48.251Z,11.00
2022-09-20T21:14:15.948Z,10.90
2022-09-20T21:16:43.486Z,10.90
2022-09-20T21:19:14.827Z,10.90
2022-09-20T21:21:43.506Z,10.90
2022-09-20T21:24:12.965Z,10.90
2022-09-20T21:26:40.742Z,10.90
2022-09-20T21:29:12.334Z,10.90
2022-09-20T21:31:41.585Z,10.90
2022-09-20T21:34:09.968Z,10.90
2022-09-20T21:36:38.232Z,10.90
2022-09-20T21:39:05.998Z,10.90
2022-09-20T21:41:35.251Z,10.90
2022-09-20T21:44:04.135Z,10.90
2022-09-20T21:46:38.616Z,10.90
2022-09-20T21:49:08.511Z,10.90
2022-09-20T21:51:36.529Z,10.90
2022-09-20T21:54:04.400Z,11.00
2022-09-20T21:56:41.460Z,11.00
2022-09-20T21:59:09.396Z,11.00
2022-09-20T22:01:38.372Z,11.00
2022-09-20T22:04:10.550Z,10.90
2022-09-20T22:06:39.949Z,10.90
2022-09-20T22:09:09.628Z,10.80
2022-09-20T22:11:39.093Z,10.80
2022-09-20T22:14:06.815Z,10.60
2022-09-20T22:16:36.024Z,10.70
2022-09-20T22:19:02.994Z,10.60
2022-09-20T22:21:41.410Z,10.70
2022-09-20T22:24:10.446Z,10.70
2022-09-20T22:26:46.430Z,10.70
2022-09-20T22:29:14.466Z,10.80
2022-09-20T22:31:45.416Z,10.70
2022-09-20T22:34:17.744Z,10.70
2022-09-20T22:36:45.334Z,10.70
2022-09-20T22:39:12.941Z,10.80
2022-09-20T22:41:41.351Z,10.70
2022-09-20T22:44:09.234Z,10.80
2022-09-20T22:46:36.472Z,10.70
2022-09-20T22:49:07.801Z,10.70
2022-09-20T22:51:35.410Z,10.80
2022-09-20T22:54:10.378Z,10.80
2022-09-20T22:56:38.534Z,10.80
2022-09-20T22:59:07.622Z,10.70
2022-09-20T23:01:36.583Z,10.70
2022-09-20T23:04:07.661Z,10.70
2022-09-20T23:06:51.853Z,10.70
2022-09-20T23:09:18.902Z,10.70
2022-09-20T23:11:45.816Z,10.70
2022-09-20T23:14:15.767Z,10.70
2022-09-20T23:16:43.140Z,10.70
2022-09-20T23:19:11.277Z,10.70
2022-09-20T23:21:39.661Z,10.60
2022-09-20T23:24:09.080Z,10.60
2022-09-20T23:26:37.537Z,10.60
2022-09-20T23:29:05.612Z,10.60
2022-09-20T23:31:34.662Z,10.60
2022-09-20T23:34:03.636Z,10.50
2022-09-20T23:36:32.764Z,10.50
2022-09-20T23:38:59.913Z,10.60
2022-09-20T23:41:28.339Z,10.60
2022-09-20T23:43:55.417Z,10.60
2022-09-20T23:46:24.994Z,10.60
2022-09-20T23:48:52.602Z,10.50
2022-09-20T23:51:22.923Z,10.40
2022-09-20T23:53:50.904Z,10.50
2022-09-20T23:56:18.268Z,10.40
2022-09-20T23:58:45.426Z,10.30
